createdAt,value
2019-04-27T00:01:17.781Z,13.70
2019-04-27T00:03:55.581Z,13.60
2019-04-27T00:06:23.930Z,13.60
2019-04-27T00:08:53.520Z,13.50
2019-04-27T00:11:22.993Z,13.50
2019-04-27T00:13:49.701Z,13.50
2019-04-27T00:16:19.876Z,13.40
2019-04-27T00:19:04.976Z,13.40
2019-04-27T00:21:49.605Z,13.40
2019-04-27T00:24:17.272Z,13.40
2019-04-27T00:26:45.545Z,13.20
2019-04-27T00:29:13.604Z,13.30
2019-04-27T00:31:40.170Z,13.20
2019-04-27T00:34:06.679Z,13.00
2019-04-27T00:36:40.782Z,13.10
2019-04-27T00:39:14.853Z,13.10
2019-04-27T00:41:42.887Z,13.10
2019-04-27T00:44:09.478Z,13.10
2019-04-27T00:46:35.839Z,13.10
2019-04-27T00:49:03.685Z,13.00
2019-04-27T00:51:30.209Z,12.90
2019-04-27T00:53:56.594Z,13.00
2019-04-27T00:56:30.870Z,13.00
2019-04-27T00:58:59.146Z,13.00
2019-04-27T01:01:30.198Z,13.00
2019-04-27T01:03:58.488Z,13.00
2019-04-27T01:06:25.034Z,12.90
2019-04-27T01:08:51.545Z,12.90
2019-04-27T01:11:19.531Z,12.90
2019-04-27T01:13:45.847Z,12.90
2019-04-27T01:16:13.215Z,12.70
2019-04-27T01:18:40.463Z,12.60
2019-04-27T01:21:06.891Z,12.60
2019-04-27T01:26:01.051Z,12.70
2019-04-27T01:28:32.357Z,12.60
2019-04-27T01:31:00.721Z,12.70
2019-04-27T01:33:28.318Z,12.60
2019-04-27T01:35:55.275Z,12.60
2019-04-27T01:38:21.689Z,12.50
2019-04-27T01:40:49.715Z,12.50
2019-04-27T01:43:16.320Z,12.50
2019-04-27T01:45:42.778Z,12.50
2019-04-27T01:48:22.553Z,12.50
2019-04-27T01:50:39.054Z,12.50
2019-04-27T01:53:05.534Z,12.40
2019-04-27T01:55:31.879Z,12.40
2019-04-27T01:57:58.577Z,12.40
2019-04-27T02:00:33.618Z,12.40
2019-04-27T02:03:01.930Z,12.40
2019-04-27T02:05:33.215Z,12.30
2019-04-27T02:08:00.791Z,12.20
2019-04-27T02:10:27.143Z,12.10
2019-04-27T02:12:54.620Z,12.10
2019-04-27T02:15:21.019Z,12.10
2019-04-27T02:17:50.685Z,12.00
2019-04-27T02:20:15.639Z,11.90
2019-04-27T02:22:41.979Z,11.80
2019-04-27T02:25:09.035Z,11.70
2019-04-27T02:27:38.903Z,11.80
2019-04-27T02:30:21.140Z,11.70
2019-04-27T02:32:51.939Z,11.70
2019-04-27T02:35:19.339Z,11.60
2019-04-27T02:37:45.888Z,11.70
2019-04-27T02:40:35.775Z,11.70
2019-04-27T02:43:02.100Z,11.50
2019-04-27T02:45:30.291Z,11.60
2019-04-27T02:47:56.668Z,11.60
2019-04-27T02:50:24.183Z,11.50
2019-04-27T02:52:50.500Z,11.60
2019-04-27T02:55:19.543Z,11.60
2019-04-27T02:57:45.021Z,11.60
2019-04-27T03:00:13.092Z,11.50
2019-04-27T03:02:41.481Z,11.40
2019-04-27T03:05:12.851Z,11.40
2019-04-27T03:07:36.349Z,11.30
2019-04-27T03:10:04.799Z,11.30
2019-04-27T03:12:33.081Z,11.20
2019-04-27T03:15:04.413Z,11.20
2019-04-27T03:17:35.359Z,11.20
2019-04-27T03:20:06.870Z,11.20
2019-04-27T03:22:39.835Z,11.10
2019-04-27T03:25:10.179Z,11.10
2019-04-27T03:27:44.324Z,11.20
2019-04-27T03:30:12.870Z,11.20
2019-04-27T03:32:43.132Z,11.20
2019-04-27T03:35:12.329Z,11.20
2019-04-27T03:37:35.706Z,11.30
2019-04-27T03:40:04.263Z,11.40
2019-04-27T03:42:31.811Z,11.30
2019-04-27T03:45:00.524Z,11.30
2019-04-27T03:47:30.323Z,11.40
2019-04-27T03:49:56.341Z,11.50
2019-04-27T03:52:31.948Z,11.80
2019-04-27T03:55:00.171Z,12.00
2019-04-27T03:57:34.073Z,12.20
2019-04-27T04:00:02.333Z,12.50
2019-04-27T04:02:30.765Z,12.80
2019-04-27T04:04:59.581Z,13.00
2019-04-27T04:07:26.855Z,13.10
2019-04-27T04:09:53.183Z,13.30
2019-04-27T04:12:30.815Z,13.40
2019-04-27T04:14:59.631Z,13.50
2019-04-27T04:17:30.431Z,13.60
2019-04-27T04:19:58.501Z,13.70
2019-04-27T04:22:25.098Z,13.70
2019-04-27T04:24:51.475Z,13.80
2019-04-27T04:27:21.074Z,13.80
2019-04-27T04:29:49.264Z,13.80
2019-04-27T04:32:15.684Z,13.90
2019-04-27T04:34:42.092Z,13.90
2019-04-27T04:37:09.278Z,13.90
2019-04-27T04:39:35.698Z,13.90
2019-04-27T04:42:05.100Z,13.90
2019-04-27T04:44:36.113Z,13.90
2019-04-27T04:47:04.414Z,14.00
2019-04-27T04:49:30.756Z,14.00
2019-04-27T04:51:59.353Z,13.90
2019-04-27T04:54:25.267Z,14.00
2019-04-27T04:56:51.621Z,14.00
2019-04-27T04:59:19.956Z,14.00
2019-04-27T05:01:46.164Z,14.00
2019-04-27T05:04:12.569Z,14.00
2019-04-27T05:06:39.063Z,14.10
2019-04-27T05:09:05.507Z,14.20
2019-04-27T05:11:33.285Z,14.40
2019-04-27T05:14:01.534Z,14.50
2019-04-27T05:16:28.651Z,14.60
2019-04-27T05:18:55.053Z,14.60
2019-04-27T05:21:23.320Z,14.60
2019-04-27T05:23:49.724Z,14.60
2019-04-27T05:26:16.124Z,14.60
2019-04-27T05:28:42.457Z,14.50
2019-04-27T05:31:09.175Z,14.40
2019-04-27T05:33:35.574Z,14.40
2019-04-27T05:36:01.991Z,14.60
2019-04-27T05:38:29.512Z,14.80
2019-04-27T05:40:56.003Z,14.80
2019-04-27T05:43:25.660Z,14.80
2019-04-27T05:46:39.677Z,14.90
2019-04-27T05:49:09.561Z,14.90
2019-04-27T05:51:37.114Z,14.90
2019-04-27T05:54:04.308Z,15.00
2019-04-27T05:56:30.629Z,15.10
2019-04-27T05:59:00.295Z,15.20
2019-04-27T06:01:26.852Z,15.30
2019-04-27T06:03:53.220Z,15.30
2019-04-27T06:06:19.720Z,15.20
2019-04-27T06:08:46.239Z,15.10
2019-04-27T06:11:12.624Z,15.10
2019-04-27T06:13:39.306Z,15.10
2019-04-27T06:16:05.779Z,15.20
2019-04-27T06:18:32.150Z,15.20
2019-04-27T06:20:59.849Z,15.20
2019-04-27T06:23:28.942Z,15.30
2019-04-27T06:25:55.570Z,15.20
2019-04-27T06:28:21.945Z,15.30
2019-04-27T06:30:49.214Z,15.40
2019-04-27T06:33:29.220Z,15.40
2019-04-27T06:35:43.884Z,15.40
2019-04-27T06:38:11.610Z,15.20
2019-04-27T06:40:39.243Z,15.20
2019-04-27T06:43:05.659Z,15.20
2019-04-27T06:45:32.049Z,15.20
2019-04-27T06:47:59.536Z,15.30
2019-04-27T06:50:26.071Z,15.30
2019-04-27T06:52:52.476Z,15.20
2019-04-27T06:55:18.983Z,15.10
2019-04-27T06:57:45.236Z,15.00
2019-04-27T07:00:11.915Z,15.10
2019-04-27T07:02:39.209Z,15.10
2019-04-27T07:05:05.952Z,15.00
2019-04-27T07:07:32.344Z,15.00
2019-04-27T07:09:59.148Z,14.90
2019-04-27T07:12:25.658Z,15.00
2019-04-27T07:14:54.959Z,15.20
2019-04-27T07:17:20.208Z,15.40
2019-04-27T07:19:46.600Z,15.60
2019-04-27T07:22:12.963Z,15.60
2019-04-27T07:24:40.642Z,15.70
2019-04-27T07:27:07.170Z,15.80
2019-04-27T07:29:33.576Z,15.90
2019-04-27T07:31:59.907Z,15.90
2019-04-27T07:34:26.340Z,15.80
2019-04-27T07:36:52.684Z,15.80
2019-04-27T07:39:19.440Z,15.70
2019-04-27T07:41:45.888Z,15.60
2019-04-27T07:44:14.308Z,15.50
2019-04-27T07:46:40.672Z,15.50
2019-04-27T07:49:07.061Z,15.30
2019-04-27T07:51:34.476Z,15.10
2019-04-27T07:54:00.895Z,15.10
2019-04-27T07:56:29.057Z,15.10
2019-04-27T07:58:55.483Z,15.00
2019-04-27T08:01:21.848Z,15.00
2019-04-27T08:03:49.087Z,15.10
2019-04-27T08:06:15.716Z,15.20
2019-04-27T08:08:42.096Z,15.30
2019-04-27T08:11:08.867Z,15.40
2019-04-27T08:13:39.375Z,15.60
2019-04-27T08:16:06.053Z,15.60
2019-04-27T08:18:32.539Z,15.70
2019-04-27T08:20:59.133Z,15.60
2019-04-27T08:23:25.599Z,15.40
2019-04-27T08:25:51.941Z,15.40
2019-04-27T08:28:32.383Z,15.40
2019-04-27T08:31:03.462Z,15.30
2019-04-27T08:33:29.923Z,15.30
2019-04-27T08:35:56.355Z,15.30
2019-04-27T08:38:22.769Z,15.30
2019-04-27T08:40:49.517Z,15.30
2019-04-27T08:43:15.948Z,15.20
2019-04-27T08:45:42.560Z,15.30
2019-04-27T08:48:09.424Z,15.20
2019-04-27T08:50:37.785Z,15.20
2019-04-27T08:53:04.253Z,15.10
2019-04-27T08:55:30.655Z,15.10
2019-04-27T08:57:58.614Z,14.80
2019-04-27T09:00:25.230Z,14.90
2019-04-27T09:02:51.661Z,14.90
2019-04-27T09:05:21.167Z,14.90
2019-04-27T09:07:52.745Z,15.00
2019-04-27T09:10:39.507Z,15.00
2019-04-27T09:13:10.591Z,15.10
2019-04-27T09:15:53.764Z,15.20
2019-04-27T09:18:22.063Z,15.30
2019-04-27T09:20:52.878Z,15.30
2019-04-27T09:23:19.508Z,15.30
2019-04-27T09:25:45.849Z,15.30
2019-04-27T09:28:12.273Z,15.30
2019-04-27T09:30:39.379Z,15.20
2019-04-27T09:33:06.017Z,15.10
2019-04-27T09:35:32.402Z,15.00
2019-04-27T09:37:58.802Z,14.90
2019-04-27T09:40:26.759Z,14.80
2019-04-27T09:42:53.382Z,14.70
2019-04-27T09:45:19.778Z,14.60
2019-04-27T09:47:46.854Z,14.50
2019-04-27T09:50:13.828Z,14.50
2019-04-27T09:52:40.248Z,14.50
2019-04-27T09:55:08.510Z,14.50
2019-04-27T09:57:36.454Z,14.40
2019-04-27T10:00:08.774Z,14.40
2019-04-27T10:02:36.636Z,14.30
2019-04-27T10:05:06.011Z,14.30
2019-04-27T10:07:35.761Z,14.30
2019-04-27T10:10:06.467Z,14.30
2019-04-27T10:12:34.480Z,14.30
2019-04-27T10:15:03.554Z,14.30
2019-04-27T10:17:30.348Z,14.20
2019-04-27T10:19:57.046Z,14.30
2019-04-27T10:22:37.376Z,14.20
2019-04-27T10:24:51.826Z,14.10
2019-04-27T10:27:18.220Z,14.20
2019-04-27T10:29:44.598Z,14.30
2019-04-27T10:32:10.995Z,14.40
2019-04-27T10:34:37.361Z,14.40
2019-04-27T10:37:03.909Z,14.50
2019-04-27T10:39:30.320Z,14.50
2019-04-27T10:41:56.727Z,14.60
2019-04-27T10:44:23.113Z,14.80
2019-04-27T10:46:49.547Z,14.60
2019-04-27T10:49:15.985Z,14.50
2019-04-27T10:51:42.400Z,14.50
2019-04-27T10:54:08.794Z,14.50
2019-04-27T10:56:36.104Z,14.50
2019-04-27T10:59:04.063Z,14.50
2019-04-27T11:01:30.941Z,14.40
2019-04-27T11:04:16.183Z,14.40
2019-04-27T11:06:44.574Z,14.40
2019-04-27T11:09:11.374Z,14.40
2019-04-27T11:11:38.975Z,14.50
2019-04-27T11:14:06.907Z,14.60
2019-04-27T11:16:33.304Z,14.70
2019-04-27T11:19:00.004Z,14.80
2019-04-27T11:21:26.442Z,14.80
2019-04-27T11:23:52.829Z,14.90
2019-04-27T11:26:19.262Z,14.90
2019-04-27T11:28:46.348Z,15.00
2019-04-27T11:31:13.461Z,15.20
2019-04-27T11:33:39.938Z,15.20
2019-04-27T11:36:08.204Z,15.30
2019-04-27T11:38:36.487Z,15.10
2019-04-27T11:41:03.024Z,15.10
2019-04-27T11:43:29.572Z,15.00
2019-04-27T11:45:56.251Z,15.00
2019-04-27T11:48:22.785Z,15.10
2019-04-27T11:50:49.232Z,15.30
2019-04-27T11:53:22.627Z,15.60
2019-04-27T11:55:44.691Z,15.70
2019-04-27T11:58:11.087Z,15.90
2019-04-27T12:00:37.518Z,15.90
2019-04-27T12:03:03.986Z,15.90
2019-04-27T12:05:31.504Z,15.70
2019-04-27T12:07:58.625Z,15.70
2019-04-27T12:10:26.241Z,15.70
2019-04-27T12:12:52.805Z,15.60
2019-04-27T12:15:19.431Z,15.50
2019-04-27T12:17:46.210Z,15.30
2019-04-27T12:20:13.331Z,15.30
2019-04-27T12:22:39.741Z,15.30
2019-04-27T12:25:06.645Z,15.30
2019-04-27T12:27:37.542Z,15.30
2019-04-27T12:30:16.232Z,15.30
2019-04-27T12:32:42.782Z,15.30
2019-04-27T12:35:09.547Z,15.20
2019-04-27T12:37:35.902Z,15.30
2019-04-27T12:40:05.927Z,15.40
2019-04-27T12:42:32.457Z,15.20
2019-04-27T12:44:58.834Z,15.20
2019-04-27T12:47:26.310Z,15.00
2019-04-27T12:49:52.795Z,14.90
2019-04-27T12:52:20.733Z,14.80
2019-04-27T12:54:49.124Z,14.70
2019-04-27T12:57:23.244Z,14.60
2019-04-27T12:59:57.328Z,14.50
2019-04-27T13:02:27.171Z,14.50
2019-04-27T13:04:53.625Z,14.50
2019-04-27T13:07:20.057Z,14.40
2019-04-27T13:09:46.541Z,14.40
2019-04-27T13:12:12.914Z,14.30
2019-04-27T13:14:39.333Z,14.20
2019-04-27T13:17:06.257Z,14.10
2019-04-27T13:19:32.808Z,14.00
2019-04-27T13:21:59.246Z,14.10
2019-04-27T13:24:26.072Z,14.10
2019-04-27T13:26:55.864Z,14.10
2019-04-27T13:29:22.522Z,14.10
2019-04-27T13:31:49.538Z,14.10
2019-04-27T13:34:16.436Z,14.00
2019-04-27T13:36:43.102Z,14.00
2019-04-27T13:39:10.096Z,14.00
2019-04-27T13:41:37.344Z,14.00
2019-04-27T13:44:03.902Z,14.00
2019-04-27T13:46:49.090Z,14.00
2019-04-27T13:49:26.339Z,13.90
2019-04-27T13:51:55.596Z,13.90
2019-04-27T13:54:28.362Z,13.90
2019-04-27T13:56:52.406Z,14.00
2019-04-27T13:59:19.002Z,14.10
2019-04-27T14:01:45.667Z,14.20
2019-04-27T14:04:13.850Z,14.20
2019-04-27T14:06:41.988Z,14.30
2019-04-27T14:09:09.337Z,14.30
2019-04-27T14:11:39.345Z,14.30
2019-04-27T14:14:06.215Z,14.40
2019-04-27T14:16:32.825Z,14.50
2019-04-27T14:18:59.682Z,14.60
2019-04-27T14:21:26.205Z,14.60
2019-04-27T14:23:52.824Z,14.50
2019-04-27T14:26:19.474Z,14.50
2019-04-27T14:28:48.042Z,14.60
2019-04-27T14:31:15.128Z,14.50
2019-04-27T14:33:42.105Z,14.50
2019-04-27T14:36:08.541Z,14.50
2019-04-27T14:38:35.058Z,14.50
2019-04-27T14:41:01.627Z,14.50
2019-04-27T14:43:28.640Z,14.40
2019-04-27T14:45:55.248Z,14.30
2019-04-27T14:48:21.744Z,14.10
2019-04-27T14:50:48.590Z,14.00
2019-04-27T14:53:15.039Z,13.90
2019-04-27T14:55:42.513Z,13.80
2019-04-27T14:58:09.025Z,13.80
2019-04-27T15:00:35.559Z,13.80
2019-04-27T15:03:02.296Z,13.80
2019-04-27T15:05:28.722Z,13.80
2019-04-27T15:07:55.345Z,13.80
2019-04-27T15:10:28.581Z,13.80
2019-04-27T15:12:51.009Z,13.80
2019-04-27T15:15:17.642Z,13.80
2019-04-27T15:17:44.040Z,13.80
2019-04-27T15:20:31.089Z,13.80
2019-04-27T15:22:58.532Z,13.80
2019-04-27T15:25:25.972Z,13.80
2019-04-27T15:27:54.312Z,13.60
2019-04-27T15:30:22.594Z,13.50
2019-04-27T15:32:51.048Z,13.50
2019-04-27T15:35:35.527Z,13.30
2019-04-27T15:38:12.806Z,13.30
2019-04-27T15:40:50.563Z,13.40
2019-04-27T15:43:18.099Z,13.30
2019-04-27T15:45:44.399Z,13.30
2019-04-27T15:48:10.858Z,13.30
2019-04-27T15:50:38.733Z,13.20
2019-04-27T15:53:09.648Z,13.20
2019-04-27T15:55:36.929Z,13.20
2019-04-27T15:58:01.722Z,13.10
2019-04-27T16:00:29.928Z,13.20
2019-04-27T16:02:56.361Z,13.20
2019-04-27T16:05:23.602Z,13.10
2019-04-27T16:07:51.272Z,13.10
2019-04-27T16:10:19.995Z,13.20
2019-04-27T16:13:02.601Z,13.20
2019-04-27T16:15:17.509Z,13.20
2019-04-27T16:17:51.044Z,13.30
2019-04-27T16:20:14.209Z,13.30
2019-04-27T16:22:40.985Z,13.40
2019-04-27T16:25:08.395Z,13.30
2019-04-27T16:27:35.165Z,13.20
2019-04-27T16:30:09.592Z,13.10
2019-04-27T16:32:30.085Z,13.20
2019-04-27T16:34:56.514Z,13.20
2019-04-27T16:37:25.012Z,13.10
2019-04-27T16:39:51.525Z,13.10
2019-04-27T16:42:18.641Z,13.10
2019-04-27T16:44:49.517Z,13.10
2019-04-27T16:47:18.832Z,13.00
2019-04-27T16:49:44.152Z,13.00
2019-04-27T16:52:16.022Z,13.00
2019-04-27T16:54:39.597Z,13.00
2019-04-27T16:57:07.916Z,13.00
2019-04-27T16:59:43.302Z,13.00
2019-04-27T17:02:02.810Z,12.90
2019-04-27T17:04:31.432Z,12.90
2019-04-27T17:06:59.031Z,12.90
2019-04-27T17:09:25.636Z,12.90
2019-04-27T17:11:52.087Z,12.90
2019-04-27T17:14:29.214Z,13.00
2019-04-27T17:17:03.506Z,12.90
2019-04-27T17:19:30.726Z,13.00
2019-04-27T17:21:57.285Z,12.90
2019-04-27T17:24:42.235Z,12.90
2019-04-27T17:27:05.932Z,12.90
2019-04-27T17:29:35.398Z,12.90
2019-04-27T17:32:02.162Z,12.90
2019-04-27T17:34:29.758Z,12.90
2019-04-27T17:36:56.688Z,12.90
2019-04-27T17:39:24.851Z,12.90
2019-04-27T17:41:52.760Z,12.90
2019-04-27T17:44:23.112Z,12.90
2019-04-27T17:46:51.166Z,12.90
2019-04-27T17:49:16.331Z,12.90
2019-04-27T17:51:44.301Z,12.90
2019-04-27T17:54:11.466Z,12.90
2019-04-27T17:56:48.224Z,12.90
2019-04-27T17:59:10.239Z,12.90
2019-04-27T18:01:34.534Z,12.90
2019-04-27T18:04:03.076Z,12.80
2019-04-27T18:06:29.779Z,12.90
2019-04-27T18:09:00.813Z,12.80
2019-04-27T18:11:24.710Z,12.80
2019-04-27T18:13:51.229Z,12.80
2019-04-27T18:16:19.073Z,12.80
2019-04-27T18:18:53.591Z,12.70
2019-04-27T18:21:21.928Z,12.80
2019-04-27T18:23:55.312Z,12.60
2019-04-27T18:26:23.169Z,12.60
2019-04-27T18:28:53.904Z,12.60
2019-04-27T18:31:20.157Z,12.50
2019-04-27T18:33:46.836Z,12.50
2019-04-27T18:36:14.261Z,12.50
2019-04-27T18:38:42.234Z,12.50
2019-04-27T18:41:11.675Z,12.50
2019-04-27T18:43:39.556Z,12.50
2019-04-27T18:46:06.561Z,12.50
2019-04-27T18:48:44.892Z,12.50
2019-04-27T18:51:26.874Z,12.40
2019-04-27T18:53:58.830Z,12.40
2019-04-27T18:56:22.604Z,12.40
2019-04-27T18:58:49.080Z,12.40
2019-04-27T19:01:15.529Z,12.30
2019-04-27T19:03:41.913Z,12.30
2019-04-27T19:06:08.542Z,12.20
2019-04-27T19:08:35.275Z,12.20
2019-04-27T19:11:04.673Z,12.10
2019-04-27T19:13:30.082Z,12.10
2019-04-27T19:15:57.926Z,12.10
2019-04-27T19:18:24.983Z,12.00
2019-04-27T19:20:51.392Z,12.00
2019-04-27T19:23:17.821Z,12.00
2019-04-27T19:26:02.885Z,12.00
2019-04-27T19:28:39.202Z,11.90
2019-04-27T19:31:10.393Z,12.00
2019-04-27T19:33:36.893Z,12.00
2019-04-27T19:36:03.464Z,12.00
2019-04-27T19:38:29.998Z,12.00
2019-04-27T19:40:56.531Z,12.00
2019-04-27T19:43:23.060Z,12.00
2019-04-27T19:45:49.498Z,12.00
2019-04-27T19:48:15.965Z,12.00
2019-04-27T19:50:42.514Z,12.00
2019-04-27T19:53:09.759Z,12.00
2019-04-27T19:55:38.944Z,12.00
2019-04-27T19:58:05.877Z,11.90
2019-04-27T20:00:34.261Z,12.00
2019-04-27T20:03:01.857Z,12.00
2019-04-27T20:05:31.243Z,11.90
2019-04-27T20:07:58.936Z,11.90
2019-04-27T20:10:25.313Z,11.90
2019-04-27T20:12:51.703Z,11.90
2019-04-27T20:15:18.083Z,12.00
2019-04-27T20:17:44.509Z,11.90
2019-04-27T20:20:11.034Z,11.90
2019-04-27T20:22:37.434Z,11.90
2019-04-27T20:25:04.579Z,11.80
2019-04-27T20:27:45.051Z,11.80
2019-04-27T20:30:00.650Z,11.80
2019-04-27T20:32:31.427Z,11.80
2019-04-27T20:34:57.924Z,11.80
2019-04-27T20:37:24.326Z,11.70
2019-04-27T20:39:51.477Z,11.70
2019-04-27T20:42:18.079Z,11.70
2019-04-27T20:44:44.491Z,11.60
2019-04-27T20:47:10.893Z,11.60
2019-04-27T20:49:37.306Z,11.60
2019-04-27T20:52:05.596Z,11.60
2019-04-27T20:54:32.617Z,11.60
2019-04-27T20:56:59.149Z,11.60
2019-04-27T20:59:26.611Z,11.50
2019-04-27T21:01:53.013Z,11.60
2019-04-27T21:04:21.309Z,11.60
2019-04-27T21:06:52.704Z,11.50
2019-04-27T21:09:21.164Z,11.50
2019-04-27T21:11:48.316Z,11.40
2019-04-27T21:14:14.942Z,11.30
2019-04-27T21:16:42.012Z,11.30
2019-04-27T21:19:08.384Z,11.30
2019-04-27T21:21:34.795Z,11.30
2019-04-27T21:24:02.691Z,11.20
2019-04-27T21:26:29.090Z,11.30
2019-04-27T21:28:55.476Z,11.30
2019-04-27T21:31:21.849Z,11.20
2019-04-27T21:33:48.227Z,11.30
2019-04-27T21:36:14.584Z,11.30
2019-04-27T21:38:42.844Z,11.20
2019-04-27T21:41:09.195Z,11.20
2019-04-27T21:43:35.598Z,11.20
2019-04-27T21:46:01.968Z,11.30
2019-04-27T21:48:28.491Z,11.30
2019-04-27T21:50:54.856Z,11.30
2019-04-27T21:53:32.302Z,11.20
2019-04-27T21:56:01.305Z,11.20
2019-04-27T21:58:28.848Z,11.20
2019-04-27T22:01:00.786Z,11.20
2019-04-27T22:03:29.126Z,11.20
2019-04-27T22:05:55.532Z,11.20
2019-04-27T22:08:21.994Z,11.30
2019-04-27T22:10:48.426Z,11.30
2019-04-27T22:13:14.860Z,11.20
2019-04-27T22:15:41.686Z,11.30
2019-04-27T22:18:08.161Z,11.30
2019-04-27T22:20:35.196Z,11.30
2019-04-27T22:23:03.507Z,11.30
2019-04-27T22:25:35.849Z,11.30
2019-04-27T22:28:02.441Z,11.30
2019-04-27T22:30:28.867Z,11.30
2019-04-27T22:32:55.213Z,11.30
2019-04-27T22:35:22.453Z,11.30
2019-04-27T22:37:48.980Z,11.30
2019-04-27T22:40:21.391Z,11.40
2019-04-27T22:43:06.655Z,11.40
2019-04-27T22:45:35.058Z,11.30
2019-04-27T22:48:01.458Z,11.30
2019-04-27T22:50:27.890Z,11.30
2019-04-27T22:52:54.266Z,11.20
2019-04-27T22:55:21.996Z,11.30
2019-04-27T22:57:51.590Z,11.30
2019-04-27T23:00:35.417Z,11.20
2019-04-27T23:03:03.785Z,11.30
2019-04-27T23:05:31.915Z,11.30
2019-04-27T23:07:58.761Z,11.30
2019-04-27T23:10:25.541Z,11.20
2019-04-27T23:12:52.173Z,11.20
2019-04-27T23:15:20.616Z,11.30
2019-04-27T23:17:48.966Z,11.40
2019-04-27T23:20:15.433Z,11.30
2019-04-27T23:22:41.865Z,11.30
2019-04-27T23:25:08.370Z,11.20
2019-04-27T23:27:34.726Z,11.20
2019-04-27T23:30:01.546Z,11.20
2019-04-27T23:32:48.045Z,11.20
2019-04-27T23:35:14.412Z,11.20
2019-04-27T23:37:40.819Z,11.20
2019-04-27T23:40:07.662Z,11.20
2019-04-27T23:42:34.065Z,11.20
2019-04-27T23:45:00.395Z,11.20
2019-04-27T23:47:26.840Z,11.20
2019-04-27T23:49:53.159Z,11.20
2019-04-27T23:52:21.453Z,11.20
2019-04-27T23:54:47.798Z,11.20
2019-04-27T23:57:14.160Z,11.10
2019-04-27T23:59:41.659Z,11.20
